sensor_id;sensor_type;location;lat;lon;timestamp;temperature;humidity
17128;DHT22;8679;50.842;4.322;2023-06-22T00:00:52;20.80;99.90
17128;DHT22;8679;50.842;4.322;2023-06-22T00:03:18;20.80;99.90
17128;DHT22;8679;50.842;4.322;2023-06-22T00:05:45;20.80;99.90
17128;DHT22;8679;50.842;4.322;2023-06-22T00:08:11;20.80;99.90
17128;DHT22;8679;50.842;4.322;2023-06-22T00:10:37;20.80;99.90
17128;DHT22;8679;50.842;4.322;2023-06-22T00:13:03;20.80;99.90
17128;DHT22;8679;50.842;4.322;2023-06-22T00:15:29;20.80;99.90
17128;DHT22;8679;50.842;4.322;2023-06-22T00:17:55;20.90;99.90
17128;DHT22;8679;50.842;4.322;2023-06-22T00:20:22;20.90;99.90
17128;DHT22;8679;50.842;4.322;2023-06-22T00:22:48;20.90;99.90
17128;DHT22;8679;50.842;4.322;2023-06-22T00:25:14;20.90;99.90
17128;DHT22;8679;50.842;4.322;2023-06-22T00:27:40;20.90;99.90
17128;DHT22;8679;50.842;4.322;2023-06-22T00:30:06;20.80;99.90
17128;DHT22;8679;50.842;4.322;2023-06-22T00:32:32;20.80;99.90
17128;DHT22;8679;50.842;4.322;2023-06-22T00:34:57;20.80;99.90
17128;DHT22;8679;50.842;4.322;2023-06-22T00:37:23;20.80;99.90
17128;DHT22;8679;50.842;4.322;2023-06-22T00:39:51;20.80;99.90
17128;DHT22;8679;50.842;4.322;2023-06-22T00:42:17;20.80;99.90
17128;DHT22;8679;50.842;4.322;2023-06-22T00:44:43;20.70;99.90
17128;DHT22;8679;50.842;4.322;2023-06-22T00:47:11;20.70;99.90
17128;DHT22;8679;50.842;4.322;2023-06-22T00:49:39;20.60;99.90
17128;DHT22;8679;50.842;4.322;2023-06-22T00:52:06;20.60;99.90
17128;DHT22;8679;50.842;4.322;2023-06-22T00:54:36;20.60;99.90
17128;DHT22;8679;50.842;4.322;2023-06-22T00:57:02;20.60;99.90
17128;DHT22;8679;50.842;4.322;2023-06-22T00:59:28;20.60;99.90
17128;DHT22;8679;50.842;4.322;2023-06-22T01:01:54;20.60;99.90
17128;DHT22;8679;50.842;4.322;2023-06-22T01:04:24;20.60;99.90
17128;DHT22;8679;50.842;4.322;2023-06-22T01:10:27;20.60;99.90
17128;DHT22;8679;50.842;4.322;2023-06-22T01:12:36;20.60;99.90
17128;DHT22;8679;50.842;4.322;2023-06-22T01:15:18;20.60;99.90
17128;DHT22;8679;50.842;4.322;2023-06-22T01:17:47;20.60;99.90
17128;DHT22;8679;50.842;4.322;2023-06-22T01:20:15;20.60;99.90
17128;DHT22;8679;50.842;4.322;2023-06-22T01:26:06;20.60;99.90
17128;DHT22;8679;50.842;4.322;2023-06-22T01:28:40;20.50;99.90
17128;DHT22;8679;50.842;4.322;2023-06-22T01:31:08;20.50;99.90
17128;DHT22;8679;50.842;4.322;2023-06-22T01:33:39;20.50;99.90
17128;DHT22;8679;50.842;4.322;2023-06-22T01:36:06;20.40;99.90
17128;DHT22;8679;50.842;4.322;2023-06-22T01:38:33;20.40;99.90
17128;DHT22;8679;50.842;4.322;2023-06-22T01:41:00;20.30;99.90
17128;DHT22;8679;50.842;4.322;2023-06-22T01:43:27;20.30;99.90
17128;DHT22;8679;50.842;4.322;2023-06-22T01:45:58;20.30;99.90
17128;DHT22;8679;50.842;4.322;2023-06-22T01:48:24;20.30;99.90
17128;DHT22;8679;50.842;4.322;2023-06-22T01:50:52;20.30;99.90
17128;DHT22;8679;50.842;4.322;2023-06-22T01:53:21;20.30;99.90
17128;DHT22;8679;50.842;4.322;2023-06-22T01:55:48;20.30;99.90
17128;DHT22;8679;50.842;4.322;2023-06-22T01:58:13;20.30;99.90
17128;DHT22;8679;50.842;4.322;2023-06-22T02:00:42;20.30;99.90
17128;DHT22;8679;50.842;4.322;2023-06-22T02:03:13;20.30;99.90
17128;DHT22;8679;50.842;4.322;2023-06-22T02:05:49;20.30;99.90
17128;DHT22;8679;50.842;4.322;2023-06-22T02:08:28;20.30;99.90
17128;DHT22;8679;50.842;4.322;2023-06-22T02:10:55;20.20;99.90
17128;DHT22;8679;50.842;4.322;2023-06-22T02:13:24;20.20;99.90
17128;DHT22;8679;50.842;4.322;2023-06-22T02:15:50;20.10;99.90
17128;DHT22;8679;50.842;4.322;2023-06-22T02:18:16;20.10;99.90
17128;DHT22;8679;50.842;4.322;2023-06-22T02:20:43;20.10;99.90
17128;DHT22;8679;50.842;4.322;2023-06-22T02:23:08;20.00;99.90
17128;DHT22;8679;50.842;4.322;2023-06-22T02:25:34;20.00;99.90
17128;DHT22;8679;50.842;4.322;2023-06-22T02:28:01;20.00;99.90
17128;DHT22;8679;50.842;4.322;2023-06-22T02:30:26;20.00;99.90
17128;DHT22;8679;50.842;4.322;2023-06-22T02:32:52;20.00;99.90
17128;DHT22;8679;50.842;4.322;2023-06-22T02:35:28;20.00;99.90
17128;DHT22;8679;50.842;4.322;2023-06-22T02:38:01;20.00;99.90
17128;DHT22;8679;50.842;4.322;2023-06-22T02:40:28;19.90;99.90
17128;DHT22;8679;50.842;4.322;2023-06-22T02:42:55;19.90;99.90
17128;DHT22;8679;50.842;4.322;2023-06-22T02:45:20;19.90;99.90
17128;DHT22;8679;50.842;4.322;2023-06-22T02:47:46;19.90;99.90
17128;DHT22;8679;50.842;4.322;2023-06-22T02:50:13;20.00;99.90
17128;DHT22;8679;50.842;4.322;2023-06-22T02:52:39;20.00;99.90
17128;DHT22;8679;50.842;4.322;2023-06-22T02:55:05;20.00;99.90
17128;DHT22;8679;50.842;4.322;2023-06-22T02:57:32;20.00;99.90
17128;DHT22;8679;50.842;4.322;2023-06-22T02:59:59;20.00;99.90
17128;DHT22;8679;50.842;4.322;2023-06-22T03:02:24;19.90;99.90
17128;DHT22;8679;50.842;4.322;2023-06-22T03:04:52;19.90;99.90
17128;DHT22;8679;50.842;4.322;2023-06-22T03:07:19;19.90;99.90
17128;DHT22;8679;50.842;4.322;2023-06-22T03:09:45;19.80;99.90
17128;DHT22;8679;50.842;4.322;2023-06-22T03:12:11;19.80;99.90
17128;DHT22;8679;50.842;4.322;2023-06-22T03:14:37;19.70;99.90
17128;DHT22;8679;50.842;4.322;2023-06-22T03:17:04;19.70;99.90
17128;DHT22;8679;50.842;4.322;2023-06-22T03:19:30;19.70;99.90
17128;DHT22;8679;50.842;4.322;2023-06-22T03:22:00;19.60;99.90
17128;DHT22;8679;50.842;4.322;2023-06-22T03:24:26;19.60;99.90
17128;DHT22;8679;50.842;4.322;2023-06-22T03:26:54;19.60;99.90
17128;DHT22;8679;50.842;4.322;2023-06-22T03:29:20;19.60;99.90
17128;DHT22;8679;50.842;4.322;2023-06-22T03:31:46;19.60;99.90
17128;DHT22;8679;50.842;4.322;2023-06-22T03:34:11;19.60;99.90
17128;DHT22;8679;50.842;4.322;2023-06-22T03:36:37;19.60;99.90
17128;DHT22;8679;50.842;4.322;2023-06-22T03:39:02;19.60;99.90
17128;DHT22;8679;50.842;4.322;2023-06-22T03:41:28;19.60;99.90
17128;DHT22;8679;50.842;4.322;2023-06-22T03:43:54;19.60;99.90
17128;DHT22;8679;50.842;4.322;2023-06-22T03:46:19;19.60;99.90
17128;DHT22;8679;50.842;4.322;2023-06-22T03:48:45;19.60;99.90
17128;DHT22;8679;50.842;4.322;2023-06-22T03:51:11;19.70;99.90
17128;DHT22;8679;50.842;4.322;2023-06-22T03:53:37;19.70;99.90
17128;DHT22;8679;50.842;4.322;2023-06-22T03:56:02;19.70;99.90
17128;DHT22;8679;50.842;4.322;2023-06-22T03:58:28;19.70;99.90
17128;DHT22;8679;50.842;4.322;2023-06-22T04:00:58;19.70;99.90
17128;DHT22;8679;50.842;4.322;2023-06-22T04:03:25;19.70;99.90
17128;DHT22;8679;50.842;4.322;2023-06-22T04:05:51;19.70;99.90
17128;DHT22;8679;50.842;4.322;2023-06-22T04:08:17;19.70;99.90
17128;DHT22;8679;50.842;4.322;2023-06-22T04:10:43;19.80;99.90
17128;DHT22;8679;50.842;4.322;2023-06-22T04:13:09;19.80;99.90
17128;DHT22;8679;50.842;4.322;2023-06-22T04:15:35;19.80;99.90
17128;DHT22;8679;50.842;4.322;2023-06-22T04:18:00;19.90;99.90
17128;DHT22;8679;50.842;4.322;2023-06-22T04:20:26;19.90;99.90
17128;DHT22;8679;50.842;4.322;2023-06-22T04:22:55;19.90;99.90
17128;DHT22;8679;50.842;4.322;2023-06-22T04:25:21;19.90;99.90
17128;DHT22;8679;50.842;4.322;2023-06-22T04:27:47;20.00;99.90
17128;DHT22;8679;50.842;4.322;2023-06-22T04:30:14;20.00;99.90
17128;DHT22;8679;50.842;4.322;2023-06-22T04:32:41;20.00;99.90
17128;DHT22;8679;50.842;4.322;2023-06-22T04:35:07;20.00;99.90
17128;DHT22;8679;50.842;4.322;2023-06-22T04:37:33;20.00;99.90
17128;DHT22;8679;50.842;4.322;2023-06-22T04:39:59;20.10;99.90
17128;DHT22;8679;50.842;4.322;2023-06-22T04:42:28;20.10;99.90
17128;DHT22;8679;50.842;4.322;2023-06-22T04:44:54;20.20;99.90
17128;DHT22;8679;50.842;4.322;2023-06-22T04:47:20;20.20;99.90
17128;DHT22;8679;50.842;4.322;2023-06-22T04:49:45;20.20;99.90
17128;DHT22;8679;50.842;4.322;2023-06-22T04:52:12;20.20;99.90
17128;DHT22;8679;50.842;4.322;2023-06-22T04:54:39;20.20;99.90
17128;DHT22;8679;50.842;4.322;2023-06-22T04:57:12;20.30;99.90
17128;DHT22;8679;50.842;4.322;2023-06-22T04:59:38;20.30;99.90
17128;DHT22;8679;50.842;4.322;2023-06-22T05:02:05;20.30;99.90
17128;DHT22;8679;50.842;4.322;2023-06-22T05:04:31;20.40;99.90
17128;DHT22;8679;50.842;4.322;2023-06-22T05:06:58;20.40;99.90
17128;DHT22;8679;50.842;4.322;2023-06-22T05:09:25;20.40;99.90
17128;DHT22;8679;50.842;4.322;2023-06-22T05:11:51;20.50;99.90
17128;DHT22;8679;50.842;4.322;2023-06-22T05:14:17;20.50;99.90
17128;DHT22;8679;50.842;4.322;2023-06-22T05:16:44;20.50;99.90
17128;DHT22;8679;50.842;4.322;2023-06-22T05:19:10;20.60;99.90
17128;DHT22;8679;50.842;4.322;2023-06-22T05:21:36;20.60;99.90
17128;DHT22;8679;50.842;4.322;2023-06-22T05:24:02;20.70;99.90
17128;DHT22;8679;50.842;4.322;2023-06-22T05:26:32;20.70;99.90
17128;DHT22;8679;50.842;4.322;2023-06-22T05:28:59;20.70;99.90
17128;DHT22;8679;50.842;4.322;2023-06-22T05:31:26;20.70;99.90
17128;DHT22;8679;50.842;4.322;2023-06-22T05:33:53;20.70;99.90
17128;DHT22;8679;50.842;4.322;2023-06-22T05:36:19;20.70;99.90
17128;DHT22;8679;50.842;4.322;2023-06-22T05:38:52;20.70;99.90
17128;DHT22;8679;50.842;4.322;2023-06-22T05:41:18;20.60;99.90
17128;DHT22;8679;50.842;4.322;2023-06-22T05:43:44;20.60;99.90
17128;DHT22;8679;50.842;4.322;2023-06-22T05:46:09;20.60;99.90
17128;DHT22;8679;50.842;4.322;2023-06-22T05:48:35;20.60;99.90
17128;DHT22;8679;50.842;4.322;2023-06-22T05:51:01;20.60;99.90
17128;DHT22;8679;50.842;4.322;2023-06-22T05:53:26;20.50;99.90
17128;DHT22;8679;50.842;4.322;2023-06-22T05:55:52;20.50;99.90
17128;DHT22;8679;50.842;4.322;2023-06-22T05:58:18;20.50;99.90
17128;DHT22;8679;50.842;4.322;2023-06-22T06:00:44;20.50;99.90
17128;DHT22;8679;50.842;4.322;2023-06-22T06:03:10;20.50;99.90
17128;DHT22;8679;50.842;4.322;2023-06-22T06:05:37;20.50;99.90
17128;DHT22;8679;50.842;4.322;2023-06-22T06:08:04;20.50;99.90
17128;DHT22;8679;50.842;4.322;2023-06-22T06:10:31;20.40;99.90
17128;DHT22;8679;50.842;4.322;2023-06-22T06:12:57;20.40;99.90
17128;DHT22;8679;50.842;4.322;2023-06-22T06:15:23;20.40;99.90
17128;DHT22;8679;50.842;4.322;2023-06-22T06:17:51;20.50;99.90
17128;DHT22;8679;50.842;4.322;2023-06-22T06:20:24;20.50;99.90
17128;DHT22;8679;50.842;4.322;2023-06-22T06:22:50;20.50;99.90
17128;DHT22;8679;50.842;4.322;2023-06-22T06:25:16;20.50;99.90
17128;DHT22;8679;50.842;4.322;2023-06-22T06:27:45;20.50;99.90
17128;DHT22;8679;50.842;4.322;2023-06-22T06:30:12;20.50;99.90
17128;DHT22;8679;50.842;4.322;2023-06-22T06:32:38;20.50;99.90
17128;DHT22;8679;50.842;4.322;2023-06-22T06:35:08;20.50;99.90
17128;DHT22;8679;50.842;4.322;2023-06-22T06:37:39;20.60;99.90
17128;DHT22;8679;50.842;4.322;2023-06-22T06:40:06;20.80;99.90
17128;DHT22;8679;50.842;4.322;2023-06-22T06:42:37;20.90;99.90
17128;DHT22;8679;50.842;4.322;2023-06-22T06:45:05;21.00;99.90
17128;DHT22;8679;50.842;4.322;2023-06-22T06:47:30;21.10;99.90
17128;DHT22;8679;50.842;4.322;2023-06-22T06:49:56;21.10;99.90
17128;DHT22;8679;50.842;4.322;2023-06-22T06:52:22;21.20;99.90
17128;DHT22;8679;50.842;4.322;2023-06-22T06:54:48;21.30;99.90
17128;DHT22;8679;50.842;4.322;2023-06-22T06:57:13;21.30;99.90
17128;DHT22;8679;50.842;4.322;2023-06-22T06:59:40;21.40;99.90
17128;DHT22;8679;50.842;4.322;2023-06-22T07:02:06;21.40;99.90
17128;DHT22;8679;50.842;4.322;2023-06-22T07:04:32;21.50;99.90
17128;DHT22;8679;50.842;4.322;2023-06-22T07:07:00;21.60;99.90
17128;DHT22;8679;50.842;4.322;2023-06-22T07:09:26;21.70;99.90
17128;DHT22;8679;50.842;4.322;2023-06-22T07:11:52;21.70;99.90
17128;DHT22;8679;50.842;4.322;2023-06-22T07:14:18;21.90;99.90
17128;DHT22;8679;50.842;4.322;2023-06-22T07:16:43;21.90;99.90
17128;DHT22;8679;50.842;4.322;2023-06-22T07:19:11;22.00;99.90
17128;DHT22;8679;50.842;4.322;2023-06-22T07:21:38;22.10;99.90
17128;DHT22;8679;50.842;4.322;2023-06-22T07:24:05;22.10;99.90
17128;DHT22;8679;50.842;4.322;2023-06-22T07:26:34;22.20;99.90
17128;DHT22;8679;50.842;4.322;2023-06-22T07:28:59;22.20;99.90
17128;DHT22;8679;50.842;4.322;2023-06-22T07:31:26;22.20;99.90
17128;DHT22;8679;50.842;4.322;2023-06-22T07:33:54;22.20;99.90
17128;DHT22;8679;50.842;4.322;2023-06-22T07:36:29;22.20;99.90
17128;DHT22;8679;50.842;4.322;2023-06-22T07:38:55;22.20;99.90
17128;DHT22;8679;50.842;4.322;2023-06-22T07:41:24;22.20;99.90
17128;DHT22;8679;50.842;4.322;2023-06-22T07:43:50;22.20;99.90
17128;DHT22;8679;50.842;4.322;2023-06-22T07:46:16;22.20;99.90
17128;DHT22;8679;50.842;4.322;2023-06-22T07:48:42;22.20;99.90
17128;DHT22;8679;50.842;4.322;2023-06-22T07:51:09;22.30;99.90
17128;DHT22;8679;50.842;4.322;2023-06-22T07:53:39;22.40;99.90
17128;DHT22;8679;50.842;4.322;2023-06-22T07:56:05;22.50;99.90
17128;DHT22;8679;50.842;4.322;2023-06-22T07:58:32;22.60;99.90
17128;DHT22;8679;50.842;4.322;2023-06-22T08:00:59;22.50;99.90
17128;DHT22;8679;50.842;4.322;2023-06-22T08:03:27;22.60;99.90
17128;DHT22;8679;50.842;4.322;2023-06-22T08:05:56;22.50;99.90
17128;DHT22;8679;50.842;4.322;2023-06-22T08:08:32;22.60;99.90
17128;DHT22;8679;50.842;4.322;2023-06-22T08:10:58;22.60;99.90
17128;DHT22;8679;50.842;4.322;2023-06-22T08:13:23;22.70;99.90
17128;DHT22;8679;50.842;4.322;2023-06-22T08:15:49;22.60;99.90
17128;DHT22;8679;50.842;4.322;2023-06-22T08:18:15;22.60;99.90
17128;DHT22;8679;50.842;4.322;2023-06-22T08:20:42;22.50;99.90
17128;DHT22;8679;50.842;4.322;2023-06-22T08:23:07;22.50;99.90
17128;DHT22;8679;50.842;4.322;2023-06-22T08:25:37;22.50;99.90
17128;DHT22;8679;50.842;4.322;2023-06-22T08:28:04;22.40;99.90
17128;DHT22;8679;50.842;4.322;2023-06-22T08:30:30;22.40;99.90
17128;DHT22;8679;50.842;4.322;2023-06-22T08:32:56;22.30;99.90
17128;DHT22;8679;50.842;4.322;2023-06-22T08:35:22;22.30;99.90
17128;DHT22;8679;50.842;4.322;2023-06-22T08:37:48;22.20;99.90
17128;DHT22;8679;50.842;4.322;2023-06-22T08:40:21;22.10;99.90
17128;DHT22;8679;50.842;4.322;2023-06-22T08:42:47;22.10;99.90
17128;DHT22;8679;50.842;4.322;2023-06-22T08:45:13;22.00;99.90
17128;DHT22;8679;50.842;4.322;2023-06-22T08:47:40;21.90;99.90
17128;DHT22;8679;50.842;4.322;2023-06-22T08:50:10;21.90;99.90
17128;DHT22;8679;50.842;4.322;2023-06-22T08:52:37;21.90;99.90
17128;DHT22;8679;50.842;4.322;2023-06-22T08:55:05;21.90;99.90
17128;DHT22;8679;50.842;4.322;2023-06-22T08:57:31;22.00;99.90
17128;DHT22;8679;50.842;4.322;2023-06-22T08:59:58;22.00;99.90
17128;DHT22;8679;50.842;4.322;2023-06-22T09:02:27;22.00;99.90
17128;DHT22;8679;50.842;4.322;2023-06-22T09:04:57;22.00;99.90
17128;DHT22;8679;50.842;4.322;2023-06-22T09:07:23;21.90;99.90
17128;DHT22;8679;50.842;4.322;2023-06-22T09:09:50;21.80;99.90
17128;DHT22;8679;50.842;4.322;2023-06-22T09:12:16;21.70;99.90
17128;DHT22;8679;50.842;4.322;2023-06-22T09:14:42;21.70;99.90
17128;DHT22;8679;50.842;4.322;2023-06-22T09:17:08;21.60;99.90
17128;DHT22;8679;50.842;4.322;2023-06-22T09:19:34;21.60;99.90
17128;DHT22;8679;50.842;4.322;2023-06-22T09:22:00;21.70;99.90
17128;DHT22;8679;50.842;4.322;2023-06-22T09:24:25;21.70;99.90
17128;DHT22;8679;50.842;4.322;2023-06-22T09:26:51;21.70;99.90
17128;DHT22;8679;50.842;4.322;2023-06-22T09:29:17;21.70;99.90
17128;DHT22;8679;50.842;4.322;2023-06-22T09:31:42;21.70;99.90
17128;DHT22;8679;50.842;4.322;2023-06-22T09:34:09;21.80;99.90
17128;DHT22;8679;50.842;4.322;2023-06-22T09:36:35;21.70;99.90
17128;DHT22;8679;50.842;4.322;2023-06-22T09:39:01;21.70;99.90
17128;DHT22;8679;50.842;4.322;2023-06-22T09:41:31;21.70;99.90
17128;DHT22;8679;50.842;4.322;2023-06-22T09:43:57;21.60;99.90
17128;DHT22;8679;50.842;4.322;2023-06-22T09:46:23;21.40;99.90
17128;DHT22;8679;50.842;4.322;2023-06-22T09:48:50;21.40;99.90
17128;DHT22;8679;50.842;4.322;2023-06-22T09:51:16;21.20;99.90
17128;DHT22;8679;50.842;4.322;2023-06-22T09:53:42;21.00;99.90
17128;DHT22;8679;50.842;4.322;2023-06-22T09:56:09;20.80;99.90
17128;DHT22;8679;50.842;4.322;2023-06-22T09:58:43;20.60;99.90
17128;DHT22;8679;50.842;4.322;2023-06-22T10:01:09;20.50;99.90
17128;DHT22;8679;50.842;4.322;2023-06-22T10:03:36;20.50;99.90
17128;DHT22;8679;50.842;4.322;2023-06-22T10:06:02;20.30;99.90
17128;DHT22;8679;50.842;4.322;2023-06-22T10:08:28;20.20;99.90
17128;DHT22;8679;50.842;4.322;2023-06-22T10:10:54;20.10;99.90
17128;DHT22;8679;50.842;4.322;2023-06-22T10:13:19;20.10;99.90
17128;DHT22;8679;50.842;4.322;2023-06-22T10:15:45;20.00;99.90
17128;DHT22;8679;50.842;4.322;2023-06-22T10:18:18;20.00;99.90
17128;DHT22;8679;50.842;4.322;2023-06-22T10:20:48;20.00;99.90
17128;DHT22;8679;50.842;4.322;2023-06-22T10:23:16;19.90;99.90
17128;DHT22;8679;50.842;4.322;2023-06-22T10:25:42;20.00;99.90
17128;DHT22;8679;50.842;4.322;2023-06-22T10:28:08;20.00;99.90
17128;DHT22;8679;50.842;4.322;2023-06-22T10:30:33;20.00;99.90
17128;DHT22;8679;50.842;4.322;2023-06-22T10:32:59;19.80;99.90
17128;DHT22;8679;50.842;4.322;2023-06-22T10:35:25;19.90;99.90
17128;DHT22;8679;50.842;4.322;2023-06-22T10:37:50;19.80;99.90
17128;DHT22;8679;50.842;4.322;2023-06-22T10:40:17;19.80;99.90
17128;DHT22;8679;50.842;4.322;2023-06-22T10:42:44;19.80;99.90
17128;DHT22;8679;50.842;4.322;2023-06-22T10:45:10;19.90;99.90
17128;DHT22;8679;50.842;4.322;2023-06-22T10:47:36;19.80;99.90
17128;DHT22;8679;50.842;4.322;2023-06-22T10:50:03;19.80;99.90
17128;DHT22;8679;50.842;4.322;2023-06-22T10:52:29;19.90;99.90
17128;DHT22;8679;50.842;4.322;2023-06-22T10:54:54;20.00;99.90
17128;DHT22;8679;50.842;4.322;2023-06-22T10:57:21;20.00;99.90
17128;DHT22;8679;50.842;4.322;2023-06-22T10:59:47;20.00;99.90
17128;DHT22;8679;50.842;4.322;2023-06-22T11:02:13;20.00;99.90
17128;DHT22;8679;50.842;4.322;2023-06-22T11:04:39;20.10;99.90
17128;DHT22;8679;50.842;4.322;2023-06-22T11:07:05;20.10;99.90
17128;DHT22;8679;50.842;4.322;2023-06-22T11:09:30;20.10;99.90
17128;DHT22;8679;50.842;4.322;2023-06-22T11:11:57;20.20;99.90
17128;DHT22;8679;50.842;4.322;2023-06-22T11:14:25;20.30;99.90
17128;DHT22;8679;50.842;4.322;2023-06-22T11:16:50;20.30;99.90
17128;DHT22;8679;50.842;4.322;2023-06-22T11:19:17;20.30;99.90
17128;DHT22;8679;50.842;4.322;2023-06-22T11:21:43;20.30;99.90
17128;DHT22;8679;50.842;4.322;2023-06-22T11:24:08;20.30;99.90
17128;DHT22;8679;50.842;4.322;2023-06-22T11:26:34;20.30;99.90
17128;DHT22;8679;50.842;4.322;2023-06-22T11:29:00;20.20;99.90
17128;DHT22;8679;50.842;4.322;2023-06-22T11:31:26;20.30;99.90
17128;DHT22;8679;50.842;4.322;2023-06-22T11:33:52;20.20;99.90
17128;DHT22;8679;50.842;4.322;2023-06-22T11:36:18;20.20;99.90
17128;DHT22;8679;50.842;4.322;2023-06-22T11:38:45;20.10;99.90
17128;DHT22;8679;50.842;4.322;2023-06-22T11:41:11;20.10;99.90
17128;DHT22;8679;50.842;4.322;2023-06-22T11:43:36;20.10;99.90
17128;DHT22;8679;50.842;4.322;2023-06-22T11:46:03;20.10;99.90
17128;DHT22;8679;50.842;4.322;2023-06-22T11:48:29;20.10;99.90
17128;DHT22;8679;50.842;4.322;2023-06-22T11:50:55;20.00;99.90
17128;DHT22;8679;50.842;4.322;2023-06-22T11:53:23;20.00;99.90
17128;DHT22;8679;50.842;4.322;2023-06-22T11:55:49;20.00;99.90
17128;DHT22;8679;50.842;4.322;2023-06-22T11:58:15;20.10;99.90
17128;DHT22;8679;50.842;4.322;2023-06-22T12:00:41;20.10;99.90
17128;DHT22;8679;50.842;4.322;2023-06-22T12:03:07;20.10;99.90
17128;DHT22;8679;50.842;4.322;2023-06-22T12:05:33;20.00;99.90
17128;DHT22;8679;50.842;4.322;2023-06-22T12:07:59;20.00;99.90
17128;DHT22;8679;50.842;4.322;2023-06-22T12:10:27;20.00;99.90
17128;DHT22;8679;50.842;4.322;2023-06-22T12:12:56;19.90;99.90
17128;DHT22;8679;50.842;4.322;2023-06-22T12:15:23;19.90;99.90
17128;DHT22;8679;50.842;4.322;2023-06-22T12:17:49;19.90;99.90
17128;DHT22;8679;50.842;4.322;2023-06-22T12:20:15;19.90;99.90
17128;DHT22;8679;50.842;4.322;2023-06-22T12:22:41;19.80;99.90
17128;DHT22;8679;50.842;4.322;2023-06-22T12:25:07;19.80;99.90
17128;DHT22;8679;50.842;4.322;2023-06-22T12:27:33;19.80;99.90
17128;DHT22;8679;50.842;4.322;2023-06-22T12:29:59;19.80;99.90
17128;DHT22;8679;50.842;4.322;2023-06-22T12:32:25;19.80;99.90
17128;DHT22;8679;50.842;4.322;2023-06-22T12:34:51;19.80;99.90
17128;DHT22;8679;50.842;4.322;2023-06-22T12:37:16;19.80;99.90
17128;DHT22;8679;50.842;4.322;2023-06-22T12:39:42;19.70;99.90
17128;DHT22;8679;50.842;4.322;2023-06-22T12:42:08;19.70;99.90
17128;DHT22;8679;50.842;4.322;2023-06-22T12:44:43;19.70;99.90
17128;DHT22;8679;50.842;4.322;2023-06-22T12:47:09;19.60;99.90
17128;DHT22;8679;50.842;4.322;2023-06-22T12:49:35;19.60;99.90
17128;DHT22;8679;50.842;4.322;2023-06-22T12:52:01;19.60;99.90
17128;DHT22;8679;50.842;4.322;2023-06-22T12:54:27;19.60;99.90
17128;DHT22;8679;50.842;4.322;2023-06-22T12:56:54;19.60;99.90
17128;DHT22;8679;50.842;4.322;2023-06-22T12:59:20;19.60;99.90
17128;DHT22;8679;50.842;4.322;2023-06-22T13:01:46;19.60;99.90
17128;DHT22;8679;50.842;4.322;2023-06-22T13:04:12;19.60;99.90
17128;DHT22;8679;50.842;4.322;2023-06-22T13:06:41;19.50;99.90
17128;DHT22;8679;50.842;4.322;2023-06-22T13:09:07;19.50;99.90
17128;DHT22;8679;50.842;4.322;2023-06-22T13:11:32;19.50;99.90
17128;DHT22;8679;50.842;4.322;2023-06-22T13:13:58;19.50;99.90
17128;DHT22;8679;50.842;4.322;2023-06-22T13:16:24;19.50;99.90
17128;DHT22;8679;50.842;4.322;2023-06-22T13:18:49;19.40;99.90
17128;DHT22;8679;50.842;4.322;2023-06-22T13:21:15;19.40;99.90
17128;DHT22;8679;50.842;4.322;2023-06-22T13:23:41;19.40;99.90
17128;DHT22;8679;50.842;4.322;2023-06-22T13:26:07;19.40;99.90
17128;DHT22;8679;50.842;4.322;2023-06-22T13:28:33;19.30;99.90
17128;DHT22;8679;50.842;4.322;2023-06-22T13:30:58;19.30;99.90
17128;DHT22;8679;50.842;4.322;2023-06-22T13:33:24;19.30;99.90
17128;DHT22;8679;50.842;4.322;2023-06-22T13:35:50;19.30;99.90
17128;DHT22;8679;50.842;4.322;2023-06-22T13:38:15;19.30;99.90
17128;DHT22;8679;50.842;4.322;2023-06-22T13:40:43;19.30;99.90
17128;DHT22;8679;50.842;4.322;2023-06-22T13:43:08;19.30;99.90
17128;DHT22;8679;50.842;4.322;2023-06-22T13:45:34;19.30;99.90
17128;DHT22;8679;50.842;4.322;2023-06-22T13:48:00;19.30;99.90
17128;DHT22;8679;50.842;4.322;2023-06-22T13:50:26;19.30;99.90
17128;DHT22;8679;50.842;4.322;2023-06-22T13:52:52;19.30;99.90
17128;DHT22;8679;50.842;4.322;2023-06-22T13:55:18;19.30;99.90
17128;DHT22;8679;50.842;4.322;2023-06-22T13:57:46;19.40;99.90
17128;DHT22;8679;50.842;4.322;2023-06-22T14:00:12;19.40;99.90
17128;DHT22;8679;50.842;4.322;2023-06-22T14:02:38;19.30;99.90
17128;DHT22;8679;50.842;4.322;2023-06-22T14:05:05;19.30;99.90
17128;DHT22;8679;50.842;4.322;2023-06-22T14:07:31;19.30;99.90
17128;DHT22;8679;50.842;4.322;2023-06-22T14:09:57;19.30;99.90
17128;DHT22;8679;50.842;4.322;2023-06-22T14:12:23;19.30;99.90
17128;DHT22;8679;50.842;4.322;2023-06-22T14:14:49;19.30;99.90
17128;DHT22;8679;50.842;4.322;2023-06-22T14:17:15;19.30;99.90
17128;DHT22;8679;50.842;4.322;2023-06-22T14:19:40;19.30;99.90
17128;DHT22;8679;50.842;4.322;2023-06-22T14:22:06;19.30;99.90
17128;DHT22;8679;50.842;4.322;2023-06-22T14:24:32;19.30;99.90
17128;DHT22;8679;50.842;4.322;2023-06-22T14:26:57;19.30;99.90
17128;DHT22;8679;50.842;4.322;2023-06-22T14:29:23;19.20;99.90
17128;DHT22;8679;50.842;4.322;2023-06-22T14:31:49;19.10;99.90
17128;DHT22;8679;50.842;4.322;2023-06-22T14:34:15;19.00;99.90
17128;DHT22;8679;50.842;4.322;2023-06-22T14:36:41;19.00;99.90
17128;DHT22;8679;50.842;4.322;2023-06-22T14:39:08;19.00;99.90
17128;DHT22;8679;50.842;4.322;2023-06-22T14:41:34;19.00;99.90
17128;DHT22;8679;50.842;4.322;2023-06-22T14:43:59;19.10;99.90
17128;DHT22;8679;50.842;4.322;2023-06-22T14:46:25;19.10;99.90
17128;DHT22;8679;50.842;4.322;2023-06-22T14:48:51;19.30;99.90
17128;DHT22;8679;50.842;4.322;2023-06-22T14:51:16;19.30;99.90
17128;DHT22;8679;50.842;4.322;2023-06-22T14:53:44;19.30;99.90
17128;DHT22;8679;50.842;4.322;2023-06-22T14:56:10;19.30;99.90
17128;DHT22;8679;50.842;4.322;2023-06-22T14:58:35;19.30;99.90
17128;DHT22;8679;50.842;4.322;2023-06-22T15:01:02;19.40;99.90
17128;DHT22;8679;50.842;4.322;2023-06-22T15:03:28;19.40;99.90
17128;DHT22;8679;50.842;4.322;2023-06-22T15:05:56;19.40;99.90
17128;DHT22;8679;50.842;4.322;2023-06-22T15:08:22;19.50;99.90
17128;DHT22;8679;50.842;4.322;2023-06-22T15:10:48;19.50;99.90
17128;DHT22;8679;50.842;4.322;2023-06-22T15:13:13;19.50;99.90
17128;DHT22;8679;50.842;4.322;2023-06-22T15:15:39;19.50;99.90
17128;DHT22;8679;50.842;4.322;2023-06-22T15:18:05;19.50;99.90
17128;DHT22;8679;50.842;4.322;2023-06-22T15:20:30;19.60;99.90
17128;DHT22;8679;50.842;4.322;2023-06-22T15:22:57;19.70;99.90
17128;DHT22;8679;50.842;4.322;2023-06-22T15:25:23;19.70;99.90
17128;DHT22;8679;50.842;4.322;2023-06-22T15:27:49;19.80;99.90
17128;DHT22;8679;50.842;4.322;2023-06-22T15:30:15;19.70;99.90
17128;DHT22;8679;50.842;4.322;2023-06-22T15:32:44;19.80;99.90
17128;DHT22;8679;50.842;4.322;2023-06-22T15:35:10;19.80;99.90
17128;DHT22;8679;50.842;4.322;2023-06-22T15:37:37;19.90;99.90
17128;DHT22;8679;50.842;4.322;2023-06-22T15:40:03;19.90;99.90
17128;DHT22;8679;50.842;4.322;2023-06-22T15:42:29;19.90;99.90
17128;DHT22;8679;50.842;4.322;2023-06-22T15:44:55;19.90;99.90
17128;DHT22;8679;50.842;4.322;2023-06-22T15:47:21;19.90;99.90